EIMY weather

CLOSED Moyne Aerodrome
Thurles, County Tipperary, Ireland

Public forecast

Using degrees Celsius for public forecast. Weather courtesy of forecast.io.

Closest aviation weather report (METAR) to Moyne Aerodrome

Closest report is Waterford Airport, 38.4 nm (71.0 km) SE. Retrieved 2020/05/31 16:00 UTC (35 minutes ago):

EIWF 311600Z 13011KT 080V170 CAVOK 21/10 Q1021

Closest aviation forecast (TAF) to Moyne Aerodrome

Closest forecast is Shannon Airport, 44.4 nm (82.2 km) W. Retrieved 2020/05/31 12:09 UTC (4 hours ago):

TAF EINN 311100Z 3112/0112 10010KT CAVOK BECMG 3115/3117 14010KT BECMG 3121/3123 VRB03KT